Pagina principale
METAR-TAF:

METAR-TAF

Aeroporti :

Bad Vöslau, Austria

latitudine: 47-57-52N, longitudine: 016-15-34E, altezza: 233 m

Osservazione

Il bollettino è stato emesso 56 minuti fa, alle 15:00 UTC
Vento 10 kt da ovest/nord-ovest con raffiche fino a 31 kt
Temperature 4°C
Umidità 70%
Pressione

METAR: LOAV 191500Z 30010G31KT 20KM BKN030CU 04/M01

Ora: 16:56 (15:56 UTC)

Previsione

Il bollettino è stato emesso 3 ore e 2 minuti fa, alle 12:54 UTC
Previsione valida dal 19 alle 12 UTC al 19 alle 21 UTC
Vento 14 kt da ovest
Visibilità 10 km o più
Nubi sparse ad un'altezza di 3000 ft
Nubi sparse ad un'altezza di 5000 ft
Temporaneamente
dal 19 alle 12 UTC al 19 alle 21 UTC
Vento 20 kt da ovest/nord-ovest con raffiche fino a 33 kt
Nuvoloso ad un'altezza di 2500 ft
Poco nuvoloso ad un'altezza di 3000 ft, Cumulo congesto.
rovesci di pioggia

TAF: LOAV 191254Z 1912/1921 28014KT 9999 SCT030 SCT050 TEMPO 1912/1921 29020G33KT -SHRA BKN025 FEW030TCU

Osservazioni e previsioni meteorologiche di più di 4000 aeroporti (messaggi METAR e TAF).

Le stazioni disponibili sono rappresentate dai dischi gialli e rossi sulla carta.

Puntare il mouse per vedere il nome della stazione.

Clicca sopra per visualizzare le osservazioni e previsioni meteorologiche.

Per cambiare la mappa : fare clic sui pulsanti verdi con una croce nera per ingrandire, il pulsante verde con un trattino per diminuire, o sulla freccia verde per le mappe adiacenti.


METAR-TAF: